createdAt,value
2022-12-28T00:00:25.941Z,67.84
2022-12-28T00:03:50.208Z,67.81
2022-12-28T00:06:53.492Z,67.76
2022-12-28T00:09:56.726Z,67.77
2022-12-28T00:13:00.466Z,67.72
2022-12-28T00:16:37.581Z,67.73
2022-12-28T00:19:40.858Z,67.69
2022-12-28T00:22:44.027Z,67.70
2022-12-28T00:25:49.011Z,67.70
2022-12-28T00:28:55.558Z,67.74
2022-12-28T00:32:03.018Z,67.73
2022-12-28T00:35:06.684Z,67.78
2022-12-28T00:38:10.317Z,67.76
2022-12-28T00:41:13.555Z,67.74
2022-12-28T00:44:19.239Z,67.75
2022-12-28T00:47:25.470Z,67.77
2022-12-28T00:50:28.676Z,67.75
2022-12-28T00:53:32.016Z,67.75
2022-12-28T00:56:35.934Z,67.76
2022-12-28T00:59:39.148Z,67.78
2022-12-28T01:02:42.433Z,67.79
2022-12-28T01:05:45.799Z,67.81
2022-12-28T01:08:48.996Z,67.81
2022-12-28T01:11:52.295Z,67.83
2022-12-28T01:14:55.515Z,67.84
2022-12-28T01:18:00.554Z,67.86
2022-12-28T01:21:15.496Z,67.86
2022-12-28T01:24:19.195Z,67.89
2022-12-28T01:27:22.668Z,67.92
2022-12-28T01:30:25.927Z,67.95
2022-12-28T01:33:29.169Z,67.98
2022-12-28T01:36:35.069Z,68.06
2022-12-28T01:39:38.281Z,68.11
2022-12-28T01:42:41.637Z,68.13
2022-12-28T01:45:51.604Z,68.22
2022-12-28T01:49:02.423Z,68.26
2022-12-28T01:52:17.737Z,68.27
2022-12-28T01:55:24.793Z,68.36
2022-12-28T01:58:32.003Z,68.38
2022-12-28T02:01:35.531Z,68.43
2022-12-28T02:04:38.971Z,68.50
2022-12-28T02:08:03.956Z,68.56
2022-12-28T02:11:12.455Z,68.59
2022-12-28T02:14:16.274Z,68.62
2022-12-28T02:17:19.724Z,68.62
2022-12-28T02:20:30.526Z,68.64
2022-12-28T02:23:48.909Z,68.68
2022-12-28T02:26:56.665Z,68.67
2022-12-28T02:30:04.905Z,68.69
2022-12-28T02:33:15.297Z,68.68
2022-12-28T02:36:28.056Z,68.67
2022-12-28T02:39:40.021Z,68.72
2022-12-28T02:42:45.640Z,68.71
2022-12-28T02:46:08.503Z,68.70
2022-12-28T02:49:42.177Z,68.66
2022-12-28T02:53:03.684Z,68.67
2022-12-28T02:56:33.367Z,68.71
2022-12-28T02:59:49.609Z,68.73
2022-12-28T03:03:18.985Z,68.73
2022-12-28T03:06:43.867Z,68.76
2022-12-28T03:09:53.661Z,68.78
2022-12-28T03:13:33.992Z,68.84
2022-12-28T03:16:58.915Z,68.90
2022-12-28T03:20:29.742Z,68.95
2022-12-28T03:23:53.635Z,68.93
2022-12-28T03:27:17.367Z,68.96
2022-12-28T03:30:44.396Z,69.00
2022-12-28T03:33:52.923Z,69.03
2022-12-28T03:37:17.573Z,69.07
2022-12-28T03:40:25.128Z,69.10
2022-12-28T03:43:45.785Z,69.16
2022-12-28T03:47:08.120Z,69.20
2022-12-28T03:50:12.843Z,69.24
2022-12-28T03:53:24.898Z,69.26
2022-12-28T03:56:30.549Z,69.28
2022-12-28T03:59:36.156Z,69.30
2022-12-28T04:02:39.565Z,69.31
2022-12-28T04:05:42.901Z,69.33
2022-12-28T04:08:47.436Z,69.35
2022-12-28T04:11:50.897Z,69.34
2022-12-28T04:15:00.015Z,69.35
2022-12-28T04:18:04.039Z,69.35
2022-12-28T04:21:07.870Z,69.32
2022-12-28T04:24:11.421Z,69.32
2022-12-28T04:27:15.616Z,69.32
2022-12-28T04:30:19.087Z,69.33
2022-12-28T04:33:22.753Z,69.36
2022-12-28T04:36:26.518Z,69.44
2022-12-28T04:39:55.932Z,69.47
2022-12-28T04:42:53.530Z,69.48
2022-12-28T04:46:08.257Z,69.47
2022-12-28T04:49:11.630Z,69.52
2022-12-28T04:52:14.924Z,69.53
2022-12-28T04:55:32.232Z,69.55
2022-12-28T04:58:37.476Z,69.56
2022-12-28T05:01:40.787Z,69.60
2022-12-28T05:04:44.119Z,69.62
2022-12-28T05:07:47.400Z,69.63
2022-12-28T05:10:50.643Z,69.66
2022-12-28T05:13:54.393Z,69.68
2022-12-28T05:16:57.644Z,69.68
2022-12-28T05:20:00.863Z,69.70
2022-12-28T05:23:04.107Z,69.71
2022-12-28T05:26:11.576Z,69.72
2022-12-28T05:29:14.837Z,69.70
2022-12-28T05:32:18.030Z,69.68
2022-12-28T05:35:21.594Z,69.69
2022-12-28T05:38:24.840Z,69.67
2022-12-28T05:41:29.561Z,69.65
2022-12-28T05:44:32.813Z,69.66
2022-12-28T05:47:36.164Z,69.64
2022-12-28T05:50:40.982Z,69.58
2022-12-28T05:53:44.571Z,69.52
2022-12-28T05:56:50.627Z,69.50
2022-12-28T05:59:53.823Z,69.51
2022-12-28T06:02:57.068Z,69.54
2022-12-28T06:06:24.332Z,69.53
2022-12-28T06:09:27.663Z,69.55
2022-12-28T06:12:30.861Z,69.54
2022-12-28T06:15:34.083Z,69.55
2022-12-28T06:18:37.316Z,69.57
2022-12-28T06:21:41.333Z,69.56
2022-12-28T06:24:44.997Z,69.57
2022-12-28T06:27:48.188Z,69.56
2022-12-28T06:30:52.958Z,69.55
2022-12-28T06:33:59.602Z,69.59
2022-12-28T06:37:04.262Z,69.60
2022-12-28T06:40:07.877Z,69.61
2022-12-28T06:43:11.149Z,69.58
2022-12-28T06:46:16.685Z,69.57
2022-12-28T06:49:19.984Z,69.58
2022-12-28T06:52:23.359Z,69.56
2022-12-28T06:55:26.585Z,69.53
2022-12-28T06:58:31.082Z,69.54
2022-12-28T07:01:37.384Z,69.55
2022-12-28T07:04:40.736Z,69.51
2022-12-28T07:07:46.002Z,69.51
2022-12-28T07:10:51.753Z,69.53
2022-12-28T07:13:55.276Z,69.56
2022-12-28T07:16:58.473Z,69.54
2022-12-28T07:20:01.745Z,69.51
2022-12-28T07:23:04.975Z,69.53
2022-12-28T07:26:11.481Z,69.55
2022-12-28T07:29:14.757Z,69.56
2022-12-28T07:32:17.989Z,69.55
2022-12-28T07:35:21.271Z,69.58
2022-12-28T07:38:24.542Z,69.58
2022-12-28T07:41:30.879Z,69.59
2022-12-28T07:44:38.167Z,69.64
2022-12-28T07:47:41.668Z,69.61
2022-12-28T07:50:44.853Z,69.66
2022-12-28T07:53:50.061Z,69.68
2022-12-28T07:56:53.363Z,69.70
2022-12-28T07:59:56.780Z,69.69
2022-12-28T08:03:00.032Z,69.73
2022-12-28T08:06:20.200Z,69.77
2022-12-28T08:09:23.369Z,69.80
2022-12-28T08:12:26.546Z,69.79
2022-12-28T08:15:32.920Z,69.78
2022-12-28T08:18:36.190Z,69.79
2022-12-28T08:21:44.633Z,69.79
2022-12-28T08:24:47.923Z,69.78
2022-12-28T08:27:51.194Z,69.78
2022-12-28T08:30:55.214Z,69.71
2022-12-28T08:34:00.134Z,69.73
2022-12-28T08:37:03.355Z,69.66
2022-12-28T08:40:07.055Z,69.65
2022-12-28T08:43:10.300Z,69.63
2022-12-28T08:46:17.360Z,69.59
2022-12-28T08:49:20.699Z,69.55
2022-12-28T08:52:24.897Z,69.50
2022-12-28T08:55:28.249Z,69.50
2022-12-28T08:58:31.554Z,69.46
2022-12-28T09:01:43.779Z,69.42
2022-12-28T09:04:47.759Z,69.41
2022-12-28T09:07:59.418Z,69.38
2022-12-28T09:11:05.537Z,69.34
2022-12-28T09:14:10.627Z,69.27
2022-12-28T09:17:13.837Z,69.25
2022-12-28T09:20:17.132Z,69.13
2022-12-28T09:23:20.490Z,69.12
2022-12-28T09:26:26.105Z,69.05
2022-12-28T09:29:29.434Z,68.97
2022-12-28T09:32:32.864Z,68.92
2022-12-28T09:35:36.108Z,68.85
2022-12-28T09:38:39.366Z,68.78
2022-12-28T09:41:42.604Z,68.72
2022-12-28T09:44:49.105Z,68.73
2022-12-28T09:47:58.809Z,68.71
2022-12-28T09:51:02.663Z,68.55
2022-12-28T09:54:05.926Z,68.48
2022-12-28T09:57:18.359Z,68.38
2022-12-28T10:00:22.872Z,68.33
2022-12-28T10:03:38.112Z,68.45
2022-12-28T10:06:41.715Z,68.39
2022-12-28T10:09:46.107Z,68.31
2022-12-28T10:12:51.465Z,68.25
2022-12-28T10:15:55.718Z,68.22
2022-12-28T10:18:59.887Z,68.13
2022-12-28T10:22:07.065Z,68.18
2022-12-28T10:25:17.043Z,68.12
2022-12-28T10:28:24.548Z,68.14
2022-12-28T10:31:40.042Z,68.16
2022-12-28T10:34:58.913Z,68.07
2022-12-28T10:38:05.794Z,68.07
2022-12-28T10:41:11.924Z,68.05
2022-12-28T10:44:41.258Z,68.01
2022-12-28T10:47:49.229Z,68.01
2022-12-28T10:50:55.864Z,67.99
2022-12-28T10:53:59.243Z,68.03
2022-12-28T10:57:03.759Z,67.91
2022-12-28T11:00:14.754Z,67.92
2022-12-28T11:03:19.441Z,67.83
2022-12-28T11:06:28.396Z,67.83
2022-12-28T11:09:35.333Z,67.76
2022-12-28T11:12:44.598Z,67.71
2022-12-28T11:15:47.885Z,67.68
2022-12-28T11:18:51.431Z,67.55
2022-12-28T11:21:54.780Z,67.49
2022-12-28T11:25:01.045Z,67.53
2022-12-28T11:28:16.312Z,67.49
2022-12-28T11:31:34.361Z,67.58
2022-12-28T11:34:38.645Z,67.44
2022-12-28T11:37:52.985Z,67.33
2022-12-28T11:40:56.164Z,67.16
2022-12-28T11:44:05.891Z,66.79
2022-12-28T11:47:20.497Z,66.61
2022-12-28T11:50:36.806Z,66.38
2022-12-28T11:53:46.094Z,66.20
2022-12-28T11:56:49.401Z,66.03
2022-12-28T11:59:53.485Z,65.80
2022-12-28T12:03:01.971Z,65.62
2022-12-28T12:06:07.747Z,65.22
2022-12-28T12:09:26.402Z,65.12
2022-12-28T12:12:29.867Z,64.84
2022-12-28T12:15:41.618Z,64.61
2022-12-28T12:18:50.611Z,64.33
2022-12-28T12:22:10.536Z,64.21
2022-12-28T12:25:52.855Z,63.93
2022-12-28T12:29:16.896Z,63.79
2022-12-28T12:32:44.076Z,63.78
2022-12-28T12:35:58.485Z,63.76
2022-12-28T12:39:31.786Z,63.43
2022-12-28T12:43:10.838Z,63.21
2022-12-28T12:46:51.068Z,63.11
2022-12-28T12:50:48.378Z,63.00
2022-12-28T12:54:18.965Z,63.22
2022-12-28T12:57:48.013Z,63.26
2022-12-28T13:01:13.771Z,63.14
2022-12-28T13:04:29.842Z,63.19
2022-12-28T13:07:34.205Z,63.18
2022-12-28T13:10:44.595Z,63.24
2022-12-28T13:13:51.221Z,63.29
2022-12-28T13:16:57.088Z,63.27
2022-12-28T13:20:21.452Z,63.43
2022-12-28T13:23:25.672Z,63.40
2022-12-28T13:26:29.728Z,63.39
2022-12-28T13:29:40.448Z,63.44
2022-12-28T13:32:51.849Z,63.49
2022-12-28T13:36:19.305Z,63.37
2022-12-28T13:39:23.602Z,63.47
2022-12-28T13:42:40.698Z,63.58
2022-12-28T13:45:49.363Z,63.65
2022-12-28T13:48:58.053Z,63.71
2022-12-28T13:52:02.088Z,63.77
2022-12-28T13:55:20.493Z,63.89
2022-12-28T13:58:27.309Z,64.00
2022-12-28T14:01:36.852Z,64.10
2022-12-28T14:04:52.399Z,64.20
2022-12-28T14:07:58.624Z,64.31
2022-12-28T14:11:04.416Z,64.40
2022-12-28T14:14:09.223Z,64.46
2022-12-28T14:17:13.850Z,64.49
2022-12-28T14:20:18.058Z,64.54
2022-12-28T14:23:22.145Z,64.52
2022-12-28T14:26:26.064Z,64.62
2022-12-28T14:29:35.846Z,64.55
2022-12-28T14:36:08.157Z,64.66
2022-12-28T14:39:40.298Z,64.72
2022-12-28T14:42:50.182Z,64.78
2022-12-28T14:46:07.120Z,64.80
2022-12-28T14:49:30.076Z,64.95
2022-12-28T14:52:35.920Z,64.98
2022-12-28T14:55:51.581Z,65.05
2022-12-28T14:58:59.489Z,65.05
2022-12-28T15:02:03.793Z,65.11
2022-12-28T15:05:32.217Z,65.24
2022-12-28T15:08:36.636Z,65.41
2022-12-28T15:11:39.853Z,65.43
2022-12-28T15:14:43.599Z,65.50
2022-12-28T15:17:47.537Z,65.59
2022-12-28T15:20:51.586Z,65.66
2022-12-28T15:23:58.397Z,65.72
2022-12-28T15:27:02.911Z,65.75
2022-12-28T15:30:08.979Z,65.87
2022-12-28T15:33:14.356Z,65.95
2022-12-28T15:36:20.229Z,65.99
2022-12-28T15:39:25.615Z,66.03
2022-12-28T15:42:30.050Z,66.08
2022-12-28T15:45:35.290Z,66.14
2022-12-28T15:48:42.680Z,66.19
2022-12-28T15:51:49.363Z,66.27
2022-12-28T15:54:52.627Z,66.32
2022-12-28T15:57:55.871Z,66.36
2022-12-28T16:01:00.883Z,66.42
2022-12-28T16:04:10.807Z,66.46
2022-12-28T16:07:14.562Z,66.53
2022-12-28T16:10:19.063Z,66.57
2022-12-28T16:13:22.321Z,66.62
2022-12-28T16:16:27.926Z,66.70
2022-12-28T16:19:31.152Z,66.77
2022-12-28T16:22:34.428Z,66.78
2022-12-28T16:25:37.644Z,66.82
2022-12-28T16:28:41.842Z,66.89
2022-12-28T16:31:45.859Z,66.91
2022-12-28T16:34:49.766Z,66.94
2022-12-28T16:37:55.265Z,66.95
2022-12-28T16:40:58.935Z,67.03
2022-12-28T16:44:15.472Z,67.01
2022-12-28T16:47:18.898Z,66.99
2022-12-28T16:50:22.153Z,67.00
2022-12-28T16:53:27.211Z,66.99
2022-12-28T16:56:35.060Z,67.07
2022-12-28T16:59:50.462Z,67.07
2022-12-28T17:03:11.794Z,67.07
2022-12-28T17:06:21.551Z,67.07
2022-12-28T17:09:26.303Z,67.04
2022-12-28T17:12:29.552Z,67.04
2022-12-28T17:15:32.938Z,67.04
2022-12-28T17:18:37.561Z,67.02
2022-12-28T17:21:40.957Z,67.03
2022-12-28T17:24:44.333Z,67.04
2022-12-28T17:27:47.624Z,67.06
2022-12-28T17:30:51.073Z,67.03
2022-12-28T17:33:57.832Z,67.05
2022-12-28T17:37:01.179Z,67.05
2022-12-28T17:40:04.814Z,67.06
2022-12-28T17:43:08.515Z,67.03
2022-12-28T17:46:11.791Z,67.01
2022-12-28T17:49:16.736Z,67.03
2022-12-28T17:52:22.337Z,67.04
2022-12-28T17:55:25.607Z,67.09
2022-12-28T17:58:29.089Z,67.05
2022-12-28T18:01:32.794Z,67.04
2022-12-28T18:04:36.960Z,67.05
2022-12-28T18:07:40.212Z,67.04
2022-12-28T18:10:44.256Z,67.03
2022-12-28T18:13:47.996Z,66.98
2022-12-28T18:16:51.278Z,67.01
2022-12-28T18:19:56.035Z,66.98
2022-12-28T18:22:59.444Z,66.98
2022-12-28T18:26:26.259Z,66.96
2022-12-28T18:29:30.411Z,66.95
2022-12-28T18:32:33.687Z,66.97
2022-12-28T18:35:36.996Z,67.01
2022-12-28T18:38:45.114Z,67.06
2022-12-28T18:41:50.414Z,67.01
2022-12-28T18:44:53.800Z,66.96
2022-12-28T18:47:57.524Z,66.93
2022-12-28T18:51:05.599Z,66.90
2022-12-28T18:54:08.764Z,66.90
2022-12-28T18:57:12.285Z,66.92
2022-12-28T19:00:15.944Z,66.85
2022-12-28T19:03:19.439Z,66.85
2022-12-28T19:06:23.492Z,66.81
2022-12-28T19:09:26.783Z,66.83
2022-12-28T19:12:30.008Z,66.81
2022-12-28T19:15:33.329Z,66.78
2022-12-28T19:18:36.940Z,66.69
2022-12-28T19:21:42.441Z,66.64
2022-12-28T19:24:47.063Z,66.61
2022-12-28T19:27:50.849Z,66.60
2022-12-28T19:30:57.031Z,66.54
2022-12-28T19:34:03.163Z,66.50
2022-12-28T19:37:06.560Z,66.49
2022-12-28T19:40:09.935Z,66.48
2022-12-28T19:43:13.257Z,66.43
2022-12-28T19:46:23.365Z,66.40
2022-12-28T19:49:26.794Z,66.32
2022-12-28T19:52:30.069Z,66.30
2022-12-28T19:55:34.666Z,66.26
2022-12-28T19:58:41.067Z,66.39
2022-12-28T20:01:44.564Z,66.29
2022-12-28T20:04:48.075Z,66.28
2022-12-28T20:07:51.552Z,66.30
2022-12-28T20:10:56.511Z,66.27
2022-12-28T20:14:02.152Z,66.28
2022-12-28T20:17:05.453Z,66.28
2022-12-28T20:20:09.066Z,66.23
2022-12-28T20:23:12.378Z,66.28
2022-12-28T20:26:16.538Z,66.34
2022-12-28T20:29:19.907Z,66.31
2022-12-28T20:32:23.193Z,66.23
2022-12-28T20:35:26.586Z,66.20
2022-12-28T20:38:30.229Z,66.18
2022-12-28T20:41:52.763Z,66.15
2022-12-28T20:44:56.957Z,66.16
2022-12-28T20:48:00.989Z,66.26
2022-12-28T20:51:04.355Z,66.17
2022-12-28T20:54:07.715Z,66.21
2022-12-28T20:57:10.960Z,66.19
2022-12-28T21:00:14.761Z,66.22
2022-12-28T21:03:18.051Z,66.16
2022-12-28T21:06:21.485Z,66.17
2022-12-28T21:09:24.781Z,66.21
2022-12-28T21:12:28.355Z,66.20
2022-12-28T21:15:31.862Z,66.24
2022-12-28T21:18:35.811Z,66.25
2022-12-28T21:21:39.503Z,66.23
2022-12-28T21:24:42.966Z,66.17
2022-12-28T21:27:46.769Z,66.05
2022-12-28T21:30:55.215Z,66.01
2022-12-28T21:33:58.684Z,66.02
2022-12-28T21:37:21.914Z,66.07
2022-12-28T21:40:25.263Z,66.11
2022-12-28T21:43:30.101Z,66.11
2022-12-28T21:46:33.342Z,66.11
2022-12-28T21:49:36.640Z,66.08
2022-12-28T21:52:39.935Z,66.10
2022-12-28T21:55:43.239Z,66.05
2022-12-28T21:58:46.660Z,66.02
2022-12-28T22:02:08.669Z,66.02
2022-12-28T22:05:30.499Z,66.10
2022-12-28T22:08:52.902Z,66.06
2022-12-28T22:12:14.610Z,66.06
2022-12-28T22:15:38.939Z,65.97
2022-12-28T22:19:01.729Z,65.93
2022-12-28T22:22:06.083Z,65.96
2022-12-28T22:25:11.177Z,65.86
2022-12-28T22:28:14.794Z,65.91
2022-12-28T22:31:18.152Z,65.72
2022-12-28T22:34:21.594Z,65.76
2022-12-28T22:37:24.925Z,65.61
2022-12-28T22:40:30.284Z,65.57
2022-12-28T22:43:34.007Z,65.56
2022-12-28T22:46:37.418Z,65.61
2022-12-28T22:49:41.428Z,65.56
2022-12-28T22:52:44.804Z,65.57
2022-12-28T22:56:02.492Z,65.59
2022-12-28T22:59:08.568Z,65.64
2022-12-28T23:02:14.390Z,65.58
2022-12-28T23:05:17.874Z,65.64
2022-12-28T23:08:21.211Z,65.60
2022-12-28T23:11:36.907Z,65.56
2022-12-28T23:14:58.663Z,65.51
2022-12-28T23:18:20.617Z,65.47
2022-12-28T23:21:42.530Z,65.50
2022-12-28T23:25:04.503Z,65.57
2022-12-28T23:28:10.880Z,65.62
2022-12-28T23:31:14.152Z,65.66
2022-12-28T23:34:17.404Z,65.54
2022-12-28T23:37:20.649Z,65.56
2022-12-28T23:40:24.251Z,65.59
2022-12-28T23:43:27.569Z,65.65
2022-12-28T23:46:30.911Z,65.60
2022-12-28T23:49:34.173Z,65.59
2022-12-28T23:52:37.433Z,65.55
2022-12-28T23:55:40.642Z,65.63
2022-12-28T23:58:43.871Z,65.65
